Time;durP1;ratioP1;P1;durP2;ratioP2;P2;SDS_P1;SDS_P2;PMS_P1;PMS_P2;Temp;Humidity;BMP_temperature;BMP_pressure;BME280_temperature;BME280_humidity;BME280_pressure;Samples;Min_cycle;Max_cycle;Signal;HPM_P1;HPM_P2
2023/10/19 00:00:49;;;;;;;29.77;21.88;;;7.80;99.90;;;;;;5002777;28;20038;-43
2023/10/19 00:03:16;;;;;;;33.08;23.95;;;7.80;99.90;;;;;;4984494;28;20501;-45
2023/10/19 00:05:44;;;;;;;31.30;22.90;;;7.80;99.90;;;;;;5001937;28;20052;-43
2023/10/19 00:10:42;;;;;;;36.17;24.13;;;7.80;99.90;;;;;;5001560;28;20049;-43
2023/10/19 00:13:09;;;;;;;31.55;22.17;;;7.70;99.90;;;;;;4984212;28;20086;-43
2023/10/19 00:15:39;;;;;;;33.67;24.55;;;7.70;99.90;;;;;;4983775;28;20457;-47
2023/10/19 00:23:14;;;;;;;29.25;23.75;;;7.70;99.90;;;;;;5006578;28;20076;-44
2023/10/19 00:25:44;;;;;;;35.13;25.70;;;7.70;99.90;;;;;;5001712;28;20041;-46
2023/10/19 00:28:14;;;;;;;34.08;24.02;;;7.80;99.90;;;;;;4983655;28;20054;-46
2023/10/19 00:30:42;;;;;;;35.13;25.75;;;7.80;99.90;;;;;;5001509;28;20046;-45
2023/10/19 00:33:16;;;;;;;37.00;26.50;;;7.80;99.90;;;;;;4982609;28;20761;-47
2023/10/19 00:35:46;;;;;;;38.22;26.58;;;7.70;99.90;;;;;;4983980;28;20429;-43
2023/10/19 00:38:33;;;;;;;38.00;26.77;;;7.80;99.90;;;;;;4962008;28;20541;-42
2023/10/19 00:43:36;;;;;;;32.10;24.05;;;7.80;99.90;;;;;;5000978;28;20053;-47
2023/10/19 00:46:03;;;;;;;38.88;27.42;;;7.80;99.90;;;;;;4982883;28;20548;-46
2023/10/19 00:48:29;;;;;;;36.30;26.80;;;7.80;99.90;;;;;;4983729;28;20054;-44
2023/10/19 00:51:06;;;;;;;40.75;29.30;;;7.80;99.90;;;;;;5000832;28;20493;-47
2023/10/19 00:53:37;;;;;;;42.20;30.25;;;7.80;99.90;;;;;;4985365;28;20046;-46
2023/10/19 00:56:06;;;;;;;49.03;31.33;;;7.80;99.90;;;;;;5001054;28;20038;-43
2023/10/19 00:58:36;;;;;;;46.70;31.35;;;7.80;99.90;;;;;;5000826;28;20924;-43
2023/10/19 01:01:05;;;;;;;38.25;28.73;;;7.80;99.90;;;;;;5000506;28;20389;-43
2023/10/19 01:03:35;;;;;;;45.97;29.48;;;7.80;99.90;;;;;;4983481;28;20556;-45
2023/10/19 01:06:03;;;;;;;51.80;32.75;;;7.80;99.90;;;;;;4983369;28;20049;-43
2023/10/19 01:08:39;;;;;;;50.22;31.88;;;7.80;99.90;;;;;;4982763;28;20453;-45
2023/10/19 01:11:05;;;;;;;50.30;30.85;;;7.80;99.90;;;;;;4999845;28;20045;-46
2023/10/19 01:13:34;;;;;;;42.53;30.60;;;7.90;99.90;;;;;;5000420;28;20104;-44
2023/10/19 01:16:00;;;;;;;51.30;32.63;;;7.80;99.90;;;;;;5000654;28;20053;-42
2023/10/19 01:18:29;;;;;;;45.03;29.23;;;7.90;99.90;;;;;;4993447;28;20053;-43
2023/10/19 01:20:55;;;;;;;53.22;33.88;;;7.80;99.90;;;;;;4982706;28;20053;-44
2023/10/19 01:23:21;;;;;;;46.50;30.20;;;7.90;99.90;;;;;;5000536;28;20453;-44
2023/10/19 01:25:59;;;;;;;53.58;34.00;;;7.90;99.90;;;;;;4982472;28;20129;-45
2023/10/19 01:28:48;;;;;;;58.00;34.28;;;7.90;99.90;;;;;;4982218;28;20049;-46
2023/10/19 01:31:38;;;;;;;48.78;32.20;;;7.90;99.90;;;;;;4982461;28;20049;-44
2023/10/19 01:34:04;;;;;;;43.15;30.25;;;7.90;99.90;;;;;;4990732;28;20242;-44
2023/10/19 01:36:35;;;;;;;53.28;33.97;;;7.90;99.90;;;;;;4982242;28;20052;-44
2023/10/19 01:39:03;;;;;;;60.63;35.35;;;7.90;99.90;;;;;;4960619;28;20049;-46
2023/10/19 01:41:30;;;;;;;43.05;28.75;;;7.90;99.90;;;;;;4965800;28;20405;-44
2023/10/19 01:44:04;;;;;;;59.55;33.42;;;7.90;99.90;;;;;;5000529;28;20117;-43
2023/10/19 01:46:39;;;;;;;58.28;35.15;;;7.90;99.90;;;;;;5000137;28;20524;-44
2023/10/19 01:49:05;;;;;;;62.17;35.80;;;7.90;99.90;;;;;;4965524;28;20056;-44
2023/10/19 01:51:33;;;;;;;61.85;35.50;;;7.90;99.90;;;;;;4981682;28;20072;-43
2023/10/19 01:54:00;;;;;;;52.38;33.83;;;8.00;99.90;;;;;;5000089;28;20172;-45
2023/10/19 01:56:26;;;;;;;54.88;32.70;;;8.00;99.90;;;;;;4982643;28;20363;-42
2023/10/19 01:58:54;;;;;;;61.80;34.92;;;7.90;99.90;;;;;;4965774;28;20143;-43
2023/10/19 02:01:20;;;;;;;46.92;30.73;;;7.90;99.90;;;;;;4999426;28;20049;-42
2023/10/19 02:03:51;;;;;;;50.55;31.48;;;8.00;99.90;;;;;;5001761;28;20504;-47
2023/10/19 02:06:20;;;;;;;81.03;37.40;;;8.00;99.90;;;;;;4981275;28;20049;-43
2023/10/19 02:08:51;;;;;;;60.08;33.92;;;8.00;99.90;;;;;;4999475;28;20050;-45
2023/10/19 02:11:23;;;;;;;54.45;31.88;;;8.00;99.90;;;;;;4998937;28;20041;-48
2023/10/19 02:13:51;;;;;;;43.28;28.52;;;8.00;99.90;;;;;;4981331;28;20093;-48
2023/10/19 02:16:29;;;;;;;40.45;26.02;;;8.00;99.90;;;;;;4999166;28;20382;-47
2023/10/19 02:18:55;;;;;;;46.78;27.63;;;8.00;99.90;;;;;;5002709;28;20449;-47
2023/10/19 02:21:29;;;;;;;40.67;26.17;;;8.10;99.90;;;;;;4965460;28;20045;-45
2023/10/19 02:23:54;;;;;;;39.35;27.67;;;8.10;99.90;;;;;;4982842;28;20061;-45
2023/10/19 02:26:22;;;;;;;34.47;23.70;;;8.00;99.90;;;;;;4999699;28;20497;-48
2023/10/19 02:28:51;;;;;;;41.78;24.40;;;8.10;99.90;;;;;;4965584;28;20420;-45
2023/10/19 02:31:24;;;;;;;41.28;25.15;;;8.10;99.90;;;;;;4998943;28;20060;-44
2023/10/19 02:34:00;;;;;;;37.20;21.77;;;8.10;99.90;;;;;;4999246;28;20049;-45
2023/10/19 02:36:30;;;;;;;37.95;22.70;;;8.10;99.90;;;;;;4999002;28;20523;-48
2023/10/19 02:39:07;;;;;;;30.20;20.60;;;8.10;99.90;;;;;;4976056;28;20473;-46
2023/10/19 02:41:38;;;;;;;29.92;21.63;;;8.10;99.90;;;;;;4980609;28;20053;-44
2023/10/19 02:44:14;;;;;;;36.17;22.90;;;8.10;99.90;;;;;;4999150;28;20156;-45
2023/10/19 02:46:41;;;;;;;36.05;22.45;;;8.10;99.90;;;;;;4981213;28;20398;-45
2023/10/19 02:49:11;;;;;;;36.42;22.00;;;8.10;99.90;;;;;;4998594;28;20049;-45
2023/10/19 02:51:37;;;;;;;29.75;20.90;;;8.10;99.90;;;;;;4999513;28;20501;-46
2023/10/19 02:54:04;;;;;;;28.80;19.65;;;8.10;99.90;;;;;;4981889;28;20065;-45
2023/10/19 02:56:35;;;;;;;33.35;20.88;;;8.20;99.90;;;;;;5001050;28;20497;-45
2023/10/19 02:59:03;;;;;;;31.65;20.23;;;8.20;99.90;;;;;;5003301;28;20493;-46
2023/10/19 03:01:31;;;;;;;33.28;20.55;;;8.20;99.90;;;;;;4969274;28;20564;-43
2023/10/19 03:04:00;;;;;;;34.38;21.33;;;8.20;99.90;;;;;;4985683;28;20129;-44
2023/10/19 03:06:31;;;;;;;32.60;19.88;;;8.20;99.90;;;;;;4985698;28;20078;-44
2023/10/19 03:11:42;;;;;;;30.05;19.40;;;8.20;99.90;;;;;;4984656;28;20049;-43
2023/10/19 03:14:08;;;;;;;30.15;20.60;;;8.20;99.90;;;;;;5002941;28;20164;-47
2023/10/19 03:16:36;;;;;;;33.63;21.48;;;8.20;99.90;;;;;;5002880;28;20050;-44
2023/10/19 03:19:02;;;;;;;34.22;21.10;;;8.30;99.90;;;;;;5013491;28;20367;-44
2023/10/19 03:21:27;;;;;;;31.50;20.55;;;8.20;99.90;;;;;;5002631;28;20044;-46
2023/10/19 03:24:01;;;;;;;30.25;20.05;;;8.30;99.90;;;;;;5002759;28;20120;-47
2023/10/19 03:26:30;;;;;;;29.50;19.05;;;8.30;99.90;;;;;;5002981;28;20505;-45
2023/10/19 03:28:57;;;;;;;36.90;21.30;;;8.30;99.90;;;;;;5002762;28;20551;-45
2023/10/19 03:31:25;;;;;;;26.67;17.73;;;8.30;99.90;;;;;;5002727;28;20540;-46
2023/10/19 03:33:54;;;;;;;30.35;20.10;;;8.30;99.90;;;;;;4985520;28;20046;-43
2023/10/19 03:36:26;;;;;;;36.88;21.95;;;8.40;99.90;;;;;;5003066;28;20056;-44
2023/10/19 03:38:53;;;;;;;32.42;21.00;;;8.40;99.90;;;;;;4996514;28;20679;-45
2023/10/19 03:41:21;;;;;;;33.17;20.95;;;8.40;99.90;;;;;;5001614;28;20054;-43
2023/10/19 03:43:51;;;;;;;28.38;19.92;;;8.40;99.90;;;;;;5002166;28;20077;-45
2023/10/19 03:49:13;;;;;;;29.50;19.48;;;8.40;99.90;;;;;;4976550;28;20092;-45
2023/10/19 03:51:40;;;;;;;27.77;19.30;;;8.40;99.90;;;;;;4967912;28;20041;-44
2023/10/19 03:54:23;;;;;;;34.72;21.85;;;8.50;99.90;;;;;;4968277;28;20393;-46
2023/10/19 03:56:50;;;;;;;72.35;26.92;;;8.40;99.90;;;;;;5002353;28;20725;-47
2023/10/19 03:59:17;;;;;;;38.00;21.85;;;8.50;99.90;;;;;;5001682;28;20339;-45
2023/10/19 04:01:43;;;;;;;34.17;21.15;;;8.50;99.90;;;;;;5001355;28;20041;-47
2023/10/19 04:04:09;;;;;;;29.08;19.50;;;8.50;99.90;;;;;;4999780;28;20050;-47
2023/10/19 04:06:36;;;;;;;38.22;20.63;;;8.50;99.90;;;;;;4982603;28;20149;-44
2023/10/19 04:09:05;;;;;;;31.90;20.83;;;8.50;99.90;;;;;;4983162;28;20677;-46
2023/10/19 04:11:48;;;;;;;37.20;22.50;;;8.50;99.90;;;;;;5001490;28;20452;-45
2023/10/19 04:14:15;;;;;;;45.97;25.27;;;8.50;99.90;;;;;;5009067;28;20437;-46
2023/10/19 04:16:44;;;;;;;37.15;22.15;;;8.60;99.90;;;;;;4983763;28;20467;-44
2023/10/19 04:19:11;;;;;;;26.58;18.33;;;8.60;99.90;;;;;;5012075;28;20522;-44
2023/10/19 04:21:39;;;;;;;30.20;20.48;;;8.60;99.90;;;;;;5001283;28;20445;-47
2023/10/19 04:24:07;;;;;;;40.40;23.17;;;8.60;99.90;;;;;;5001720;28;20069;-46
2023/10/19 04:26:37;;;;;;;31.35;21.10;;;8.60;99.90;;;;;;5001362;28;20112;-46
2023/10/19 04:29:17;;;;;;;30.48;20.67;;;8.60;99.90;;;;;;5000135;28;20157;-46
2023/10/19 04:31:54;;;;;;;28.23;19.95;;;8.60;99.90;;;;;;5001880;28;20596;-47
2023/10/19 04:34:21;;;;;;;36.30;22.75;;;8.70;99.90;;;;;;4984037;28;20080;-45
2023/10/19 04:36:50;;;;;;;28.90;20.05;;;8.70;99.90;;;;;;4982742;28;20603;-47
2023/10/19 04:39:19;;;;;;;37.15;22.40;;;8.70;99.90;;;;;;4995489;28;20243;-47
2023/10/19 04:41:45;;;;;;;40.53;23.70;;;8.70;99.90;;;;;;5001292;28;20050;-44
2023/10/19 04:44:11;;;;;;;32.13;21.45;;;8.70;99.90;;;;;;5001449;28;20524;-44
2023/10/19 04:46:37;;;;;;;33.05;21.65;;;8.80;99.90;;;;;;5001647;28;20041;-44
2023/10/19 04:49:03;;;;;;;32.78;22.10;;;8.80;99.90;;;;;;4982926;28;20037;-46
2023/10/19 04:51:29;;;;;;;33.00;21.27;;;8.80;99.90;;;;;;5000922;28;20071;-46
2023/10/19 04:53:56;;;;;;;32.83;21.08;;;8.80;99.90;;;;;;5001069;28;20073;-47
2023/10/19 04:56:21;;;;;;;40.30;24.23;;;8.80;99.90;;;;;;4967391;28;20156;-46
2023/10/19 04:58:47;;;;;;;39.30;23.83;;;8.80;99.90;;;;;;4967386;28;20141;-44
2023/10/19 05:01:14;;;;;;;64.93;28.23;;;8.80;99.90;;;;;;4983275;28;20049;-47
2023/10/19 05:03:40;;;;;;;35.60;23.50;;;8.90;99.90;;;;;;5001022;28;20057;-43
2023/10/19 05:06:06;;;;;;;45.95;24.92;;;8.90;99.90;;;;;;5001483;28;20041;-46
2023/10/19 05:08:32;;;;;;;43.25;25.48;;;8.90;99.90;;;;;;4982496;28;20511;-48
2023/10/19 05:10:59;;;;;;;31.17;21.33;;;8.90;99.90;;;;;;5000639;28;20046;-43
2023/10/19 05:13:26;;;;;;;47.28;24.80;;;9.00;99.90;;;;;;5001402;28;20097;-45
2023/10/19 05:15:56;;;;;;;28.80;20.25;;;8.90;99.90;;;;;;5001175;28;20100;-46
2023/10/19 05:18:22;;;;;;;33.22;21.88;;;9.00;99.90;;;;;;5010335;28;20448;-45
2023/10/19 05:20:49;;;;;;;37.85;24.75;;;9.00;99.90;;;;;;5000013;28;20045;-44
2023/10/19 05:23:15;;;;;;;34.78;22.27;;;9.00;99.90;;;;;;4982320;28;20054;-44
2023/10/19 05:25:41;;;;;;;44.58;24.65;;;9.00;99.90;;;;;;4982394;28;20053;-43
2023/10/19 05:28:07;;;;;;;43.08;23.27;;;9.00;99.90;;;;;;4999993;28;20543;-45
2023/10/19 05:30:35;;;;;;;40.95;22.90;;;9.00;99.90;;;;;;5000294;28;20133;-44
2023/10/19 05:33:05;;;;;;;36.90;23.15;;;9.00;99.90;;;;;;4982553;28;20520;-45
2023/10/19 05:35:34;;;;;;;42.85;24.08;;;9.00;99.90;;;;;;5000719;28;20053;-43
2023/10/19 05:38:02;;;;;;;36.38;22.75;;;9.00;99.90;;;;;;4991353;28;20497;-46
2023/10/19 05:40:30;;;;;;;32.00;22.92;;;9.00;99.90;;;;;;4966255;28;20054;-47
2023/10/19 05:42:57;;;;;;;35.67;23.42;;;9.00;99.90;;;;;;5000467;28;20064;-47
2023/10/19 05:45:24;;;;;;;39.30;24.70;;;9.00;99.90;;;;;;5000503;28;20037;-46
2023/10/19 05:47:50;;;;;;;35.60;23.23;;;9.00;99.90;;;;;;4982094;28;20045;-46
2023/10/19 05:50:15;;;;;;;37.95;22.90;;;9.00;99.90;;;;;;4999194;28;20053;-48
2023/10/19 05:52:42;;;;;;;37.70;23.90;;;9.00;99.90;;;;;;4982258;28;20416;-48
2023/10/19 05:55:11;;;;;;;35.72;23.10;;;9.00;99.90;;;;;;4982704;28;20049;-47
2023/10/19 05:57:40;;;;;;;31.10;22.23;;;9.00;99.90;;;;;;4999876;28;20049;-47
2023/10/19 06:00:12;;;;;;;39.33;25.02;;;9.00;99.90;;;;;;4981644;28;20050;-47
2023/10/19 06:02:51;;;;;;;35.07;23.53;;;9.00;99.90;;;;;;4999820;28;20050;-43
2023/10/19 06:05:17;;;;;;;38.08;24.85;;;9.10;99.90;;;;;;4965479;28;20046;-46
2023/10/19 06:07:47;;;;;;;45.75;26.05;;;9.00;99.90;;;;;;4999097;28;20205;-47
2023/10/19 06:10:15;;;;;;;44.78;24.80;;;9.00;99.90;;;;;;4998792;28;20579;-47
2023/10/19 06:12:45;;;;;;;34.03;23.25;;;9.00;99.90;;;;;;4965959;28;20050;-49
2023/10/19 06:15:13;;;;;;;50.03;27.45;;;9.10;99.90;;;;;;4965700;28;20124;-44
2023/10/19 06:17:40;;;;;;;42.95;25.20;;;9.10;99.90;;;;;;4971627;28;20041;-48
2023/10/19 06:20:08;;;;;;;41.80;26.40;;;9.10;99.90;;;;;;5003785;28;20125;-45
2023/10/19 06:22:35;;;;;;;34.95;24.42;;;9.10;99.90;;;;;;4981786;28;20048;-46
2023/10/19 06:25:04;;;;;;;35.90;26.00;;;9.10;99.90;;;;;;4981470;28;20056;-44
2023/10/19 06:27:31;;;;;;;37.35;25.75;;;9.10;99.90;;;;;;4999579;28;20056;-46
2023/10/19 06:29:57;;;;;;;43.47;27.42;;;9.10;99.90;;;;;;4998315;28;20081;-48
2023/10/19 06:32:23;;;;;;;39.30;25.80;;;9.10;99.90;;;;;;4999497;28;20053;-48
2023/10/19 06:34:48;;;;;;;36.63;24.95;;;9.10;99.90;;;;;;4965405;28;20646;-47
2023/10/19 06:37:14;;;;;;;40.38;25.40;;;9.20;99.90;;;;;;4980794;28;20049;-44
2023/10/19 06:39:43;;;;;;;43.58;26.83;;;9.20;99.90;;;;;;4998241;28;20500;-47
2023/10/19 06:42:14;;;;;;;42.83;27.65;;;9.20;99.90;;;;;;4977960;28;20511;-48
2023/10/19 06:44:44;;;;;;;34.17;25.10;;;9.20;99.90;;;;;;4998227;28;20038;-48
2023/10/19 06:47:10;;;;;;;37.28;25.13;;;9.30;99.90;;;;;;4977293;28;20560;-45
2023/10/19 06:49:37;;;;;;;39.75;25.52;;;9.20;99.90;;;;;;4981015;28;20095;-47
2023/10/19 06:52:04;;;;;;;52.15;28.83;;;9.30;99.90;;;;;;4999868;28;20505;-48
2023/10/19 06:54:31;;;;;;;47.55;28.20;;;9.20;99.90;;;;;;4999335;28;20045;-47
2023/10/19 06:56:56;;;;;;;40.55;27.23;;;9.30;99.90;;;;;;4980831;28;20290;-45
2023/10/19 06:59:23;;;;;;;39.72;25.85;;;9.30;99.90;;;;;;4998166;28;20045;-46
2023/10/19 07:01:50;;;;;;;39.00;26.55;;;9.30;99.90;;;;;;4981271;28;20452;-51
2023/10/19 07:04:15;;;;;;;43.85;27.85;;;9.30;99.90;;;;;;4998936;28;20038;-43
2023/10/19 07:06:41;;;;;;;47.80;28.52;;;9.40;99.90;;;;;;4999145;28;20113;-44
2023/10/19 07:09:10;;;;;;;43.97;27.77;;;9.40;99.90;;;;;;4997435;28;20129;-44
2023/10/19 07:11:36;;;;;;;37.13;26.38;;;9.40;99.90;;;;;;4999318;28;20046;-45
2023/10/19 07:14:01;;;;;;;45.78;29.45;;;9.40;99.90;;;;;;4981024;28;20564;-45
2023/10/19 07:16:27;;;;;;;38.63;25.50;;;9.40;99.90;;;;;;4981200;28;20560;-45
2023/10/19 07:18:53;;;;;;;40.22;27.50;;;9.40;99.90;;;;;;4981040;28;20042;-45
2023/10/19 07:21:19;;;;;;;39.53;26.52;;;9.40;99.90;;;;;;4980695;28;20149;-45
2023/10/19 07:23:45;;;;;;;40.03;27.75;;;9.40;99.90;;;;;;4981159;28;20480;-43
2023/10/19 07:26:14;;;;;;;39.30;27.42;;;9.50;99.90;;;;;;4965279;28;20045;-46
2023/10/19 07:28:40;;;;;;;37.83;27.27;;;9.50;99.90;;;;;;4981294;28;20037;-47
2023/10/19 07:31:12;;;;;;;50.08;30.38;;;9.50;99.90;;;;;;4998683;28;20049;-44
2023/10/19 07:33:42;;;;;;;44.55;28.98;;;9.40;99.90;;;;;;4965688;28;20049;-47
2023/10/19 07:36:14;;;;;;;43.17;28.05;;;9.50;99.90;;;;;;4998779;28;20038;-47
2023/10/19 07:38:41;;;;;;;35.55;25.10;;;9.50;99.90;;;;;;4995760;28;20057;-47
2023/10/19 07:41:06;;;;;;;39.53;26.20;;;9.50;99.90;;;;;;4980670;28;20056;-47
2023/10/19 07:43:33;;;;;;;44.97;28.45;;;9.50;99.90;;;;;;4984672;28;20046;-46
2023/10/19 07:45:58;;;;;;;43.55;27.00;;;9.50;99.90;;;;;;5002052;28;20045;-47
2023/10/19 07:48:24;;;;;;;42.80;28.58;;;9.60;99.90;;;;;;4983721;28;20037;-45
2023/10/19 07:50:50;;;;;;;40.45;28.02;;;9.60;99.90;;;;;;4983665;28;20050;-45
2023/10/19 07:53:17;;;;;;;53.05;29.83;;;9.60;99.90;;;;;;5000810;28;20079;-45
2023/10/19 07:55:43;;;;;;;46.83;29.63;;;9.70;99.90;;;;;;4968469;28;20524;-44
2023/10/19 07:58:10;;;;;;;46.03;28.90;;;9.60;99.90;;;;;;4984502;28;20054;-47
2023/10/19 08:00:35;;;;;;;47.95;29.70;;;9.70;99.90;;;;;;5001844;28;20433;-47
2023/10/19 08:03:02;;;;;;;42.45;28.63;;;9.70;99.90;;;;;;5002468;28;20037;-47
2023/10/19 08:05:28;;;;;;;49.58;29.45;;;9.70;99.90;;;;;;5002209;28;20049;-44
2023/10/19 08:07:54;;;;;;;41.40;29.20;;;9.80;99.90;;;;;;5001546;28;20108;-44
2023/10/19 08:10:20;;;;;;;54.20;31.60;;;9.80;99.90;;;;;;4982915;28;20099;-46
2023/10/19 08:12:47;;;;;;;52.75;30.08;;;9.80;99.90;;;;;;4996535;28;20802;-46
2023/10/19 08:15:17;;;;;;;46.55;30.23;;;9.90;99.90;;;;;;4981976;28;20068;-47
2023/10/19 08:17:45;;;;;;;60.53;32.78;;;9.90;99.90;;;;;;5007597;28;20603;-48
2023/10/19 08:20:27;;;;;;;59.22;32.88;;;9.90;99.90;;;;;;5003784;28;20075;-44
2023/10/19 08:22:57;;;;;;;51.70;30.95;;;9.90;99.90;;;;;;4967715;28;20069;-45
2023/10/19 08:25:23;;;;;;;46.60;29.10;;;10.00;99.90;;;;;;5001717;28;20046;-44
2023/10/19 08:27:50;;;;;;;55.72;29.42;;;10.00;99.90;;;;;;5001403;28;20573;-46
2023/10/19 08:30:21;;;;;;;52.83;31.65;;;10.10;99.90;;;;;;5001412;28;20088;-46
2023/10/19 08:32:51;;;;;;;42.65;29.10;;;10.10;99.90;;;;;;4983701;28;20128;-45
2023/10/19 08:35:20;;;;;;;45.72;29.08;;;10.10;99.90;;;;;;4982478;28;20083;-44
2023/10/19 08:37:46;;;;;;;45.15;29.65;;;10.10;99.90;;;;;;4995449;28;20077;-47
2023/10/19 08:40:14;;;;;;;45.35;30.02;;;10.10;99.90;;;;;;4999752;28;20050;-45
2023/10/19 08:42:41;;;;;;;53.20;30.42;;;10.20;99.90;;;;;;5000637;28;20512;-44
2023/10/19 08:45:08;;;;;;;46.88;30.00;;;10.20;99.90;;;;;;5000904;28;20046;-46
2023/10/19 08:47:37;;;;;;;42.97;30.15;;;10.20;99.90;;;;;;4999862;28;20446;-45
2023/10/19 08:50:05;;;;;;;43.58;29.63;;;10.30;99.90;;;;;;4982516;28;20121;-44
2023/10/19 08:52:32;;;;;;;40.72;28.27;;;10.30;99.90;;;;;;4981947;28;20038;-43
2023/10/19 08:54:57;;;;;;;44.08;29.15;;;10.30;99.90;;;;;;5000258;28;20037;-44
2023/10/19 08:57:23;;;;;;;43.65;28.50;;;10.40;99.90;;;;;;5000197;28;20530;-46
2023/10/19 08:59:49;;;;;;;42.83;28.52;;;10.40;99.90;;;;;;5000217;28;20037;-48
2023/10/19 09:02:16;;;;;;;41.85;28.70;;;10.40;99.90;;;;;;4966461;28;20050;-43
2023/10/19 09:04:47;;;;;;;45.92;30.27;;;10.50;99.90;;;;;;4966382;28;20389;-45
2023/10/19 09:07:14;;;;;;;37.28;26.88;;;10.50;99.90;;;;;;5008788;28;20041;-44
2023/10/19 09:09:40;;;;;;;37.25;26.38;;;10.60;99.90;;;;;;5006472;28;20076;-44
2023/10/19 09:12:07;;;;;;;43.65;27.58;;;10.50;99.90;;;;;;5010799;28;20066;-45
2023/10/19 09:14:41;;;;;;;44.28;28.40;;;10.60;99.90;;;;;;4997766;28;20046;-43
2023/10/19 09:17:07;;;;;;;;;;;10.50;99.90;;;;;;4980432;28;20046;-44
2023/10/19 09:19:37;;;;;;;43.95;27.15;;;10.60;99.90;;;;;;4981404;28;19977;-47
2023/10/19 09:22:07;;;;;;;37.33;25.90;;;10.50;99.90;;;;;;4981240;28;20038;-45
2023/10/19 09:24:34;;;;;;;36.17;26.33;;;10.60;99.90;;;;;;4999322;28;20137;-47
2023/10/19 09:27:03;;;;;;;47.78;27.40;;;10.60;99.90;;;;;;4970509;28;20045;-42
2023/10/19 09:29:29;;;;;;;36.33;26.33;;;10.60;99.90;;;;;;4950684;28;20053;-44
2023/10/19 09:31:57;;;;;;;51.00;29.90;;;10.60;99.90;;;;;;4981930;28;20140;-48
2023/10/19 09:34:31;;;;;;;35.72;26.35;;;10.60;99.90;;;;;;4999108;28;20124;-45
2023/10/19 09:37:00;;;;;;;37.38;25.83;;;10.60;99.90;;;;;;4997195;28;20067;-45
2023/10/19 09:39:35;;;;;;;44.35;27.80;;;10.70;99.90;;;;;;4991484;28;20442;-48
2023/10/19 09:42:12;;;;;;;41.00;27.40;;;10.60;99.90;;;;;;4980673;28;20613;-44
2023/10/19 09:44:48;;;;;;;42.92;27.60;;;10.70;99.90;;;;;;4998753;28;20057;-46
2023/10/19 09:47:38;;;;;;;38.60;26.33;;;10.70;99.90;;;;;;4979616;28;20204;-43
2023/10/19 09:50:06;;;;;;;52.20;31.38;;;10.70;99.90;;;;;;4952862;28;20492;-46
2023/10/19 09:52:33;;;;;;;43.92;28.38;;;10.70;99.90;;;;;;4990484;28;20042;-45
2023/10/19 09:55:10;;;;;;;38.55;27.90;;;10.70;99.90;;;;;;4976139;28;20046;-45
2023/10/19 09:57:44;;;;;;;50.00;28.85;;;10.80;99.90;;;;;;4996230;28;20045;-44
2023/10/19 10:00:13;;;;;;;53.55;31.42;;;10.90;99.90;;;;;;4998221;28;20076;-47
2023/10/19 10:02:42;;;;;;;52.88;29.98;;;10.80;99.90;;;;;;4986915;28;20049;-48
2023/10/19 10:05:42;;;;;;;47.85;30.30;;;10.90;99.90;;;;;;4970276;28;20787;-44
2023/10/19 10:08:16;;;;;;;50.10;29.83;;;11.00;99.90;;;;;;4996961;28;20048;-45
2023/10/19 10:10:42;;;;;;;44.13;29.13;;;11.00;99.90;;;;;;4995952;28;20125;-45
2023/10/19 10:13:37;;;;;;;45.83;28.67;;;11.00;99.90;;;;;;4986275;28;20048;-45
2023/10/19 10:16:04;;;;;;;42.47;27.95;;;11.10;99.90;;;;;;4984535;28;20081;-45
2023/10/19 10:18:37;;;;;;;39.72;27.63;;;11.10;99.90;;;;;;4974097;28;20140;-45
2023/10/19 10:21:18;;;;;;;38.97;27.83;;;11.20;99.90;;;;;;5003116;28;20077;-45
2023/10/19 10:23:47;;;;;;;38.90;26.83;;;11.20;99.90;;;;;;4997927;28;20123;-45
2023/10/19 10:26:17;;;;;;;41.80;27.83;;;11.30;99.90;;;;;;4993538;28;20045;-45
2023/10/19 10:28:48;;;;;;;36.72;26.00;;;11.40;99.90;;;;;;4996199;28;20041;-43
2023/10/19 10:31:17;;;;;;;38.88;26.55;;;11.30;99.90;;;;;;4985049;28;20072;-48
2023/10/19 10:33:46;;;;;;;31.98;26.00;;;11.40;99.90;;;;;;4995328;28;20042;-44
2023/10/19 10:36:13;;;;;;;36.33;26.15;;;11.50;99.90;;;;;;5002262;28;20056;-46
2023/10/19 10:38:40;;;;;;;40.25;26.73;;;11.50;99.90;;;;;;4996851;28;20050;-47
2023/10/19 10:41:09;;;;;;;46.60;30.35;;;11.50;99.90;;;;;;5000950;28;20054;-47
2023/10/19 10:43:52;;;;;;;45.08;29.58;;;11.60;99.90;;;;;;4997891;28;20919;-46
2023/10/19 10:46:18;;;;;;;38.58;27.35;;;11.60;99.90;;;;;;4998964;28;20103;-48
2023/10/19 10:48:44;;;;;;;42.35;29.02;;;11.70;99.90;;;;;;4980603;28;20184;-45
2023/10/19 10:51:21;;;;;;;32.28;26.05;;;11.70;99.90;;;;;;4996868;28;20054;-44
2023/10/19 10:53:52;;;;;;;53.25;30.77;;;11.80;99.90;;;;;;4978590;28;20054;-46
2023/10/19 10:56:19;;;;;;;43.80;28.63;;;11.80;99.90;;;;;;4980235;28;20048;-45
2023/10/19 10:58:46;;;;;;;44.50;30.65;;;11.90;99.90;;;;;;4998267;28;20372;-44
2023/10/19 11:01:13;;;;;;;38.90;27.58;;;11.90;99.90;;;;;;4997567;28;20054;-44
2023/10/19 11:03:39;;;;;;;42.70;29.60;;;11.90;99.90;;;;;;4980107;28;20046;-44
2023/10/19 11:06:09;;;;;;;45.92;29.20;;;11.90;99.90;;;;;;4980400;28;20111;-43
2023/10/19 11:08:36;;;;;;;41.35;29.58;;;11.90;99.90;;;;;;4998617;28;20046;-45
2023/10/19 11:11:07;;;;;;;45.40;30.15;;;12.10;99.90;;;;;;4962409;28;20576;-45
2023/10/19 11:13:34;;;;;;;37.78;30.35;;;12.10;99.90;;;;;;5003619;28;20758;-46
2023/10/19 11:16:01;;;;;;;37.15;28.48;;;12.10;99.90;;;;;;4997857;28;20037;-46
2023/10/19 11:18:39;;;;;;;35.17;27.10;;;12.10;99.90;;;;;;5001121;28;20326;-46
2023/10/19 11:21:12;;;;;;;36.60;26.80;;;12.10;99.90;;;;;;5001538;28;20058;-45
2023/10/19 11:23:41;;;;;;;41.17;29.17;;;12.10;99.90;;;;;;4981327;28;20038;-47
2023/10/19 11:26:06;;;;;;;44.70;29.00;;;12.10;99.90;;;;;;4983132;28;20171;-47
2023/10/19 11:28:34;;;;;;;38.03;28.90;;;12.20;99.90;;;;;;4999337;28;20048;-45
2023/10/19 11:31:15;;;;;;;36.53;26.15;;;12.20;99.90;;;;;;4981839;28;20390;-45
2023/10/19 11:33:43;;;;;;;35.88;28.10;;;12.30;99.90;;;;;;5001524;28;20045;-43
2023/10/19 11:36:12;;;;;;;34.53;27.02;;;12.30;99.90;;;;;;4998893;28;20049;-47
2023/10/19 11:38:46;;;;;;;33.00;26.15;;;12.30;99.90;;;;;;4983458;28;20038;-45
2023/10/19 11:41:15;;;;;;;35.47;27.63;;;12.30;99.90;;;;;;5000902;28;20049;-45
2023/10/19 11:43:42;;;;;;;38.78;27.88;;;12.30;99.90;;;;;;4983498;28;20049;-47
2023/10/19 11:46:09;;;;;;;32.83;27.23;;;12.30;99.90;;;;;;4984608;28;20117;-45
2023/10/19 11:48:36;;;;;;;38.97;26.92;;;12.40;99.90;;;;;;4997456;28;20147;-44
2023/10/19 11:51:05;;;;;;;31.77;26.67;;;12.40;99.90;;;;;;5000072;28;20667;-45
2023/10/19 11:53:33;;;;;;;32.90;25.45;;;12.50;99.90;;;;;;4963785;28;20041;-48
2023/10/19 11:56:04;;;;;;;33.95;25.10;;;12.60;99.90;;;;;;4999774;28;20058;-48
2023/10/19 11:58:32;;;;;;;28.30;23.90;;;12.70;99.90;;;;;;4982541;28;20212;-46
2023/10/19 12:00:59;;;;;;;30.30;24.08;;;12.60;99.90;;;;;;4998377;28;20054;-45
2023/10/19 12:03:25;;;;;;;36.13;27.65;;;12.60;99.90;;;;;;4999065;28;20063;-50
2023/10/19 12:05:53;;;;;;;30.20;25.33;;;12.60;99.90;;;;;;4996095;28;20048;-47
2023/10/19 12:08:19;;;;;;;32.45;25.30;;;12.60;99.90;;;;;;4974333;28;20077;-45
2023/10/19 12:10:44;;;;;;;32.55;25.23;;;12.60;99.90;;;;;;4998614;28;20038;-45
2023/10/19 12:13:10;;;;;;;32.35;25.17;;;12.60;99.90;;;;;;5000705;28;20042;-47
2023/10/19 12:15:36;;;;;;;35.80;26.75;;;12.50;99.90;;;;;;4984564;28;20507;-47
2023/10/19 12:18:03;;;;;;;30.17;24.92;;;12.50;99.90;;;;;;4999914;28;20041;-45
2023/10/19 12:20:31;;;;;;;33.20;27.52;;;12.50;99.90;;;;;;4990632;28;20826;-45
2023/10/19 12:22:58;;;;;;;31.90;25.58;;;12.40;99.90;;;;;;5001148;28;20504;-47
2023/10/19 12:25:31;;;;;;;37.72;27.38;;;12.40;99.90;;;;;;5001347;28;20037;-49
2023/10/19 12:27:58;;;;;;;31.40;24.95;;;12.40;99.90;;;;;;4999620;28;20091;-47
2023/10/19 12:30:26;;;;;;;34.90;27.70;;;12.30;99.90;;;;;;4981635;28;20046;-45
2023/10/19 12:32:52;;;;;;;35.90;27.75;;;12.30;99.90;;;;;;4983497;28;20045;-43
2023/10/19 12:35:19;;;;;;;42.53;28.90;;;12.40;99.90;;;;;;5000543;28;20087;-44
2023/10/19 12:37:47;;;;;;;35.78;28.17;;;12.40;99.90;;;;;;4995851;28;20041;-45
2023/10/19 12:40:29;;;;;;;35.92;28.00;;;12.30;99.90;;;;;;4997815;28;20057;-43
2023/10/19 12:42:55;;;;;;;40.70;28.23;;;12.30;99.90;;;;;;4997828;28;20452;-45
2023/10/19 12:45:25;;;;;;;36.47;28.77;;;12.20;99.90;;;;;;4999778;28;20089;-44
2023/10/19 12:47:54;;;;;;;43.10;30.52;;;12.20;99.90;;;;;;4997850;28;20121;-44
2023/10/19 12:50:24;;;;;;;40.20;30.67;;;12.10;99.90;;;;;;4981589;28;20132;-45
2023/10/19 12:52:49;;;;;;;39.28;28.90;;;12.10;99.90;;;;;;4966538;28;20453;-44
2023/10/19 12:55:16;;;;;;;42.65;30.10;;;12.10;99.90;;;;;;4999465;28;20060;-44
2023/10/19 12:57:42;;;;;;;46.75;30.48;;;12.10;99.90;;;;;;5000731;28;20030;-44